Terminal Aerodrome Forecast
Issued by NWS Blacksburg, VA

Home | Current Version | Previous Version | Text Only | Print | Product List | Glossary On
Versions: 1 2 3 4 5 6 7 8 9 10 11 12 13 14 15 16 17 18 19 20 21 22 23 24 25 26 27 28 29 30 31
000
FTUS41 KRNK 201335 AAA
TAFBLF
TAF AMD
KBLF 201335Z 2014/2112 12005KT P6SM OVC017
     FM201900 27005KT P6SM -RASN SCT012 OVC025
     FM210100 27003KT 5SM BR OVC015
     FM210600 27004KT 1SM BR OVC002=

USA.gov is the U.S. government's official web portal to all federal, state and local government web resources and services.